Terminal Aerodrome Forecast
Issued by NWS

Home | Current Version | Previous Version | Text Only | Print | Product List | Glossary On
Versions: 1 2 3 4 5 6 7 8 9 10 11 12 13 14 15 16 17 18 19 20 21 22 23 24 25 26 27 28
000
FTUS43 KGLD 011745
TAFMCK
TAF
KMCK 011745Z 0118/0218 25015KT P6SM FEW150
     FM012000 28010KT P6SM SCT150
     FM012200 31012KT P6SM SCT150
     FM012300 34015G22KT P6SM VCTS BKN120CB
     FM020100 36022G30KT P6SM VCTS BKN100CB
     FM020300 36027G36KT P6SM VCSH OVC100=

USA.gov is the U.S. government's official web portal to all federal, state and local government web resources and services.